createdAt,value
2023-01-04T00:02:48.118Z,19.9
2023-01-04T00:12:56.921Z,19.9
2023-01-04T00:23:05.788Z,19.9
2023-01-04T00:33:14.730Z,19.9
2023-01-04T00:43:23.639Z,19.8
2023-01-04T00:53:32.675Z,19.8
2023-01-04T01:03:41.707Z,19.8
2023-01-04T01:13:50.460Z,19.8
2023-01-04T01:23:59.399Z,19.8
2023-01-04T01:34:08.382Z,19.8
2023-01-04T01:44:17.233Z,19.7
2023-01-04T01:54:26.187Z,19.7
2023-01-04T02:04:35.104Z,19.7
2023-01-04T02:14:44.068Z,19.7
2023-01-04T02:24:53.029Z,19.7
2023-01-04T02:35:01.930Z,19.7
2023-01-04T02:45:10.818Z,19.7
2023-01-04T02:55:19.778Z,19.6
2023-01-04T03:05:28.692Z,19.6
2023-01-04T03:15:37.633Z,19.6
2023-01-04T03:25:46.554Z,19.6
2023-01-04T03:35:55.487Z,19.6
2023-01-04T03:46:04.423Z,19.6
2023-01-04T03:56:13.355Z,19.6
2023-01-04T04:06:22.276Z,19.7
2023-01-04T04:16:31.232Z,19.7
2023-01-04T04:26:40.114Z,19.8
2023-01-04T04:36:49.086Z,19.8
2023-01-04T04:46:57.987Z,19.9
2023-01-04T04:57:06.940Z,19.9
2023-01-04T05:07:15.856Z,20.1
2023-01-04T05:17:25.163Z,20.3
2023-01-04T05:27:34.035Z,20.4
2023-01-04T05:37:42.999Z,20.5
2023-01-04T05:47:51.884Z,20.6
2023-01-04T05:58:00.866Z,20.7
2023-01-04T06:08:09.802Z,20.7
2023-01-04T06:18:18.764Z,20.7
2023-01-04T06:28:27.682Z,20.8
2023-01-04T06:38:36.654Z,20.8
2023-01-04T06:48:45.535Z,20.8
2023-01-04T06:58:54.538Z,20.9
2023-01-04T07:09:03.401Z,21
2023-01-04T07:19:12.360Z,21
2023-01-04T07:29:21.257Z,21
2023-01-04T07:39:30.211Z,21
2023-01-04T07:49:39.122Z,21
2023-01-04T07:59:48.061Z,21
2023-01-04T08:09:56.971Z,21.1
2023-01-04T08:20:05.918Z,21.1
2023-01-04T08:30:14.840Z,21.2
2023-01-04T08:40:23.806Z,21.2
2023-01-04T08:50:32.696Z,21.2
2023-01-04T09:00:41.621Z,21.1
2023-01-04T09:10:50.529Z,21.1
2023-01-04T09:20:59.505Z,21.1
2023-01-04T09:31:08.454Z,21.2
2023-01-04T09:41:17.354Z,21.2
2023-01-04T09:51:26.265Z,21.2
2023-01-04T10:01:35.515Z,21.2
2023-01-04T10:11:44.127Z,21.2
2023-01-04T10:21:53.237Z,21.2
2023-01-04T10:32:02.056Z,21.3
2023-01-04T10:42:10.935Z,21.4
2023-01-04T10:52:19.844Z,21.4
2023-01-04T11:02:29.030Z,21.5
2023-01-04T11:12:37.718Z,21.5
2023-01-04T11:22:46.749Z,21.5
2023-01-04T11:32:55.603Z,21.5
2023-01-04T11:43:04.522Z,21.6
2023-01-04T11:53:13.440Z,21.6
2023-01-04T12:03:22.378Z,21.6
2023-01-04T12:13:31.293Z,21.6
2023-01-04T12:23:40.236Z,21.7
2023-01-04T12:33:49.155Z,21.7
2023-01-04T12:43:58.201Z,21.7
2023-01-04T12:54:07.008Z,21.6
2023-01-04T13:04:15.964Z,21.7
2023-01-04T13:14:24.865Z,21.7
2023-01-04T13:24:33.833Z,21.8
2023-01-04T13:34:42.731Z,21.9
2023-01-04T13:45:18.384Z,21.9
2023-01-04T13:55:00.584Z,21.9
2023-01-04T14:05:09.629Z,21.9
2023-01-04T14:15:18.459Z,22
2023-01-04T14:25:27.392Z,22
2023-01-04T14:35:39.899Z,21.9
2023-01-04T14:45:45.274Z,21.8
2023-01-04T14:55:54.172Z,21.7
2023-01-04T15:06:03.111Z,21.7
2023-01-04T15:16:12.227Z,21.6
2023-01-04T15:26:20.981Z,21.6
2023-01-04T15:36:29.878Z,21.5
2023-01-04T15:46:38.916Z,21.5
2023-01-04T15:56:47.894Z,21.4
2023-01-04T16:06:56.708Z,21.4
2023-01-04T16:17:05.635Z,21.4
2023-01-04T16:27:14.631Z,21.4
2023-01-04T16:37:23.456Z,21.4
2023-01-04T16:47:32.434Z,21.3
2023-01-04T16:57:41.366Z,21.3
2023-01-04T17:07:50.284Z,21.3
2023-01-04T17:17:59.186Z,21.3
2023-01-04T17:28:08.255Z,21.3
2023-01-04T17:38:17.047Z,21.3
2023-01-04T17:48:25.998Z,21.3
2023-01-04T17:58:34.922Z,21.2
2023-01-04T18:08:43.847Z,21.2
2023-01-04T18:18:52.767Z,21.2
2023-01-04T18:29:01.728Z,21.2
2023-01-04T18:39:10.632Z,21.2
2023-01-04T18:49:19.587Z,21.2
2023-01-04T18:59:28.495Z,21.1
2023-01-04T19:09:37.448Z,21.1
2023-01-04T19:19:46.340Z,21.1
2023-01-04T19:29:55.305Z,21.1
2023-01-04T19:40:04.200Z,21.1
2023-01-04T19:50:13.162Z,21.1
2023-01-04T20:00:22.072Z,21.1
2023-01-04T20:10:31.036Z,21
2023-01-04T20:20:39.927Z,21
2023-01-04T20:30:48.935Z,21
2023-01-04T20:40:57.843Z,21
2023-01-04T20:51:06.785Z,21
2023-01-04T21:01:15.858Z,21
2023-01-04T21:11:24.669Z,21
2023-01-04T21:21:33.609Z,21
2023-01-04T21:31:42.668Z,20.9
2023-01-04T21:41:51.472Z,20.9
2023-01-04T21:52:00.409Z,20.9
2023-01-04T22:02:09.405Z,20.9
2023-01-04T22:12:18.282Z,20.9
2023-01-04T22:22:27.184Z,20.9
2023-01-04T22:32:36.141Z,20.9
2023-01-04T22:42:45.058Z,20.8
2023-01-04T22:52:54.057Z,20.8
2023-01-04T23:03:03.021Z,20.8
2023-01-04T23:13:11.879Z,20.8
2023-01-04T23:23:20.758Z,20.8
2023-01-04T23:33:35.656Z,20.8
2023-01-04T23:43:38.625Z,20.8
2023-01-04T23:53:47.570Z,20.8
